createdAt,value
2022-08-01T00:00:40.650Z,87.44
2022-08-01T00:03:09.735Z,87.48
2022-08-01T00:05:36.285Z,87.20
2022-08-01T00:08:02.843Z,87.41
2022-08-01T00:10:32.444Z,87.66
2022-08-01T00:13:02.846Z,87.27
2022-08-01T00:15:29.410Z,87.39
2022-08-01T00:17:55.970Z,87.43
2022-08-01T00:20:22.830Z,87.05
2022-08-01T00:22:51.710Z,86.87
2022-08-01T00:25:18.230Z,86.48
2022-08-01T00:27:44.791Z,86.73
2022-08-01T00:30:14.603Z,86.33
2022-08-01T00:32:43.042Z,86.40
2022-08-01T00:35:10.058Z,86.31
2022-08-01T00:37:41.389Z,86.17
2022-08-01T00:40:08.685Z,86.53
2022-08-01T00:42:38.122Z,86.23
2022-08-01T00:45:08.661Z,85.97
2022-08-01T00:47:35.224Z,85.75
2022-08-01T00:50:04.495Z,86.03
2022-08-01T00:52:34.468Z,85.85
2022-08-01T00:55:01.447Z,85.71
2022-08-01T00:58:01.473Z,85.98
2022-08-01T01:00:16.042Z,85.79
2022-08-01T01:02:42.735Z,85.91
2022-08-01T01:05:09.671Z,85.64
2022-08-01T01:07:50.032Z,85.76
2022-08-01T01:10:23.909Z,85.79
2022-08-01T01:13:12.643Z,85.65
2022-08-01T01:15:50.818Z,85.74
2022-08-01T01:18:26.542Z,85.61
2022-08-01T01:21:04.579Z,86.10
2022-08-01T01:24:05.048Z,85.60
2022-08-01T01:27:02.452Z,85.81
2022-08-01T01:30:00.540Z,85.67
2022-08-01T01:32:39.301Z,85.51
2022-08-01T01:35:42.781Z,85.62
2022-08-01T01:38:18.835Z,85.61
2022-08-01T01:40:49.916Z,85.31
2022-08-01T01:43:20.354Z,85.25
2022-08-01T01:45:48.593Z,85.20
2022-08-01T01:48:20.359Z,85.48
2022-08-01T01:50:48.756Z,85.15
2022-08-01T01:53:21.259Z,85.35
2022-08-01T01:55:53.183Z,85.41
2022-08-01T01:58:21.434Z,85.62
2022-08-01T02:00:50.668Z,85.71
2022-08-01T02:03:19.680Z,86.13
2022-08-01T02:05:49.465Z,86.07
2022-08-01T02:08:17.755Z,86.19
2022-08-01T02:11:06.410Z,86.66
2022-08-01T02:13:35.088Z,86.50
2022-08-01T02:16:02.409Z,86.40
2022-08-01T02:18:31.626Z,86.42
2022-08-01T02:21:00.090Z,86.49
2022-08-01T02:23:38.013Z,86.12
2022-08-01T02:26:11.748Z,86.31
2022-08-01T02:29:02.590Z,86.47
2022-08-01T02:31:33.215Z,86.51
2022-08-01T02:34:12.697Z,86.28
2022-08-01T02:36:42.615Z,86.41
2022-08-01T02:39:13.891Z,86.52
2022-08-01T02:41:48.714Z,86.53
2022-08-01T02:44:28.042Z,86.77
2022-08-01T02:47:03.343Z,86.70
2022-08-01T02:49:34.576Z,86.92
2022-08-01T02:52:05.244Z,86.70
2022-08-01T02:54:33.101Z,87.00
2022-08-01T02:57:02.275Z,87.06
2022-08-01T02:59:30.782Z,87.17
2022-08-01T03:01:58.665Z,87.10
2022-08-01T03:04:28.126Z,87.42
2022-08-01T03:06:59.418Z,87.45
2022-08-01T03:09:28.601Z,87.82
2022-08-01T03:12:00.992Z,87.69
2022-08-01T03:14:32.648Z,88.11
2022-08-01T03:17:03.964Z,88.29
2022-08-01T03:19:34.251Z,88.33
2022-08-01T03:22:04.547Z,88.46
2022-08-01T03:24:32.571Z,88.44
2022-08-01T03:27:00.176Z,88.78
2022-08-01T03:29:28.638Z,89.00
2022-08-01T03:31:56.273Z,88.94
2022-08-01T03:34:22.972Z,88.70
2022-08-01T03:37:00.697Z,88.69
2022-08-01T03:39:34.831Z,88.55
2022-08-01T03:42:09.605Z,88.62
2022-08-01T03:44:40.053Z,88.35
2022-08-01T03:47:09.686Z,88.26
2022-08-01T03:49:42.972Z,88.39
2022-08-01T03:52:10.548Z,88.35
2022-08-01T03:54:41.457Z,87.81
2022-08-01T03:57:34.802Z,88.17
2022-08-01T04:00:01.256Z,88.27
2022-08-01T04:02:28.940Z,88.25
2022-08-01T04:04:56.298Z,88.39
2022-08-01T04:07:29.138Z,88.51
2022-08-01T04:09:55.793Z,87.90
2022-08-01T04:12:22.936Z,88.06
2022-08-01T04:14:51.878Z,88.10
2022-08-01T04:17:20.901Z,87.84
2022-08-01T04:19:47.450Z,87.94
2022-08-01T04:22:16.541Z,88.04
2022-08-01T04:24:54.472Z,88.40
2022-08-01T04:27:51.554Z,88.31
2022-08-01T04:30:17.905Z,88.66
2022-08-01T04:32:50.997Z,88.70
2022-08-01T04:35:23.438Z,88.70
2022-08-01T04:38:09.551Z,88.77
2022-08-01T04:40:37.336Z,88.87
2022-08-01T04:43:04.496Z,88.68
2022-08-01T04:45:33.246Z,88.74
2022-08-01T04:48:00.859Z,88.66
2022-08-01T04:50:28.361Z,88.80
2022-08-01T04:52:54.916Z,88.75
2022-08-01T04:55:21.426Z,88.46
2022-08-01T04:57:49.591Z,87.96
2022-08-01T05:00:17.612Z,87.86
2022-08-01T05:02:44.554Z,87.49
2022-08-01T05:05:11.523Z,87.41
2022-08-01T05:07:45.764Z,86.94
2022-08-01T05:10:12.870Z,87.04
2022-08-01T05:12:42.771Z,86.99
2022-08-01T05:15:15.179Z,86.92
2022-08-01T05:17:44.663Z,85.95
2022-08-01T05:20:12.589Z,84.44
2022-08-01T05:22:39.429Z,80.83
2022-08-01T05:25:08.990Z,73.61
2022-08-01T05:27:40.457Z,73.60
2022-08-01T05:30:09.142Z,75.78
2022-08-01T05:32:36.449Z,77.19
2022-08-01T05:35:03.383Z,78.67
2022-08-01T05:37:32.162Z,79.44
2022-08-01T05:39:58.749Z,80.56
2022-08-01T05:42:27.687Z,80.72
2022-08-01T05:44:54.348Z,81.14
2022-08-01T05:47:23.305Z,81.43
2022-08-01T05:49:49.960Z,81.34
2022-08-01T05:52:16.583Z,82.10
2022-08-01T05:54:45.598Z,82.03
2022-08-01T05:57:12.459Z,82.07
2022-08-01T05:59:39.199Z,82.34
2022-08-01T06:02:06.170Z,81.89
2022-08-01T06:04:32.923Z,82.11
2022-08-01T06:07:01.964Z,82.01
2022-08-01T06:09:28.646Z,82.42
2022-08-01T06:11:57.467Z,82.44
2022-08-01T06:14:23.997Z,82.23
2022-08-01T06:16:50.545Z,82.65
2022-08-01T06:19:21.627Z,82.75
2022-08-01T06:21:48.202Z,82.44
2022-08-01T06:24:14.861Z,82.05
2022-08-01T06:26:43.919Z,81.56
2022-08-01T06:29:14.125Z,80.21
2022-08-01T06:31:40.645Z,79.33
2022-08-01T06:34:07.248Z,78.36
2022-08-01T06:36:33.793Z,77.24
2022-08-01T06:39:02.597Z,76.68
2022-08-01T06:41:31.591Z,76.87
2022-08-01T06:43:58.268Z,77.54
2022-08-01T06:46:24.861Z,77.70
2022-08-01T06:48:57.169Z,77.71
2022-08-01T06:51:23.863Z,78.13
2022-08-01T06:53:54.636Z,77.95
2022-08-01T06:56:21.221Z,77.55
2022-08-01T06:58:47.980Z,77.26
2022-08-01T07:01:14.599Z,76.87
2022-08-01T07:03:53.058Z,76.89
2022-08-01T07:06:23.391Z,76.63
2022-08-01T07:11:16.512Z,75.92
2022-08-01T07:13:45.572Z,75.91
2022-08-01T07:16:15.995Z,74.94
2022-08-01T07:18:45.217Z,72.23
2022-08-01T07:21:37.219Z,73.09
2022-08-01T07:23:59.147Z,73.46
2022-08-01T07:26:27.724Z,73.86
2022-08-01T07:28:54.609Z,73.76
2022-08-01T07:31:21.230Z,74.30
2022-08-01T07:33:49.061Z,71.96
2022-08-01T07:36:17.058Z,70.64
2022-08-01T07:38:43.841Z,71.43
2022-08-01T07:41:10.793Z,71.94
2022-08-01T07:43:39.860Z,72.23
2022-08-01T07:46:07.438Z,72.44
2022-08-01T07:48:36.701Z,72.64
2022-08-01T07:51:05.331Z,73.04
2022-08-01T07:53:31.930Z,73.43
2022-08-01T07:55:58.679Z,73.50
2022-08-01T07:58:25.418Z,73.16
2022-08-01T08:00:51.954Z,71.44
2022-08-01T08:03:18.520Z,71.11
2022-08-01T08:05:51.609Z,71.06
2022-08-01T08:08:25.798Z,70.57
2022-08-01T08:10:52.716Z,68.01
2022-08-01T08:13:21.595Z,63.35
2022-08-01T08:15:51.130Z,61.56
2022-08-01T08:18:17.769Z,63.25
2022-08-01T08:20:44.966Z,64.89
2022-08-01T08:23:42.842Z,62.86
2022-08-01T08:26:12.094Z,63.38
2022-08-01T08:28:40.339Z,64.24
2022-08-01T08:31:08.043Z,64.61
2022-08-01T08:33:52.518Z,59.60
2022-08-01T08:36:19.118Z,59.63
2022-08-01T08:38:48.656Z,55.94
2022-08-01T08:41:20.755Z,55.09
2022-08-01T08:43:48.258Z,58.38
2022-08-01T08:46:16.016Z,61.16
2022-08-01T08:48:42.913Z,61.83
2022-08-01T08:51:14.106Z,63.15
2022-08-01T08:53:44.787Z,62.70
2022-08-01T08:56:17.359Z,62.33
2022-08-01T08:58:45.997Z,61.85
2022-08-01T09:01:13.630Z,58.06
2022-08-01T09:03:41.907Z,57.40
2022-08-01T09:06:08.745Z,59.39
2022-08-01T09:08:35.911Z,58.31
2022-08-01T09:11:02.605Z,56.46
2022-08-01T09:13:29.172Z,56.10
2022-08-01T09:16:00.469Z,52.78
2022-08-01T09:18:41.498Z,50.69
2022-08-01T09:21:25.276Z,51.79
2022-08-01T09:23:55.163Z,53.37
2022-08-01T09:26:31.790Z,55.41
2022-08-01T09:29:00.496Z,56.86
2022-08-01T09:31:37.854Z,58.33
2022-08-01T09:34:05.454Z,59.26
2022-08-01T09:36:45.638Z,60.54
2022-08-01T09:39:16.173Z,61.49
2022-08-01T09:41:42.781Z,61.64
2022-08-01T09:44:09.660Z,61.44
2022-08-01T09:46:37.423Z,60.70
2022-08-01T09:49:10.743Z,60.72
2022-08-01T09:51:59.468Z,60.83
2022-08-01T09:54:35.033Z,60.97
2022-08-01T09:57:13.872Z,61.83
2022-08-01T09:59:58.430Z,62.53
2022-08-01T10:02:36.430Z,63.19
2022-08-01T10:05:09.293Z,63.63
2022-08-01T10:07:58.959Z,63.75
2022-08-01T10:10:29.198Z,63.34
2022-08-01T10:13:09.824Z,63.69
2022-08-01T10:15:37.973Z,63.69
2022-08-01T10:18:16.078Z,64.22
2022-08-01T10:20:44.035Z,64.97
2022-08-01T10:23:11.817Z,65.47
2022-08-01T10:25:46.889Z,64.70
2022-08-01T10:28:23.900Z,63.81
2022-08-01T10:30:52.114Z,63.44
2022-08-01T10:33:51.822Z,63.42
2022-08-01T10:36:10.406Z,63.50
2022-08-01T10:38:37.230Z,63.73
2022-08-01T10:41:06.240Z,64.01
2022-08-01T10:43:35.479Z,64.22
2022-08-01T10:46:04.249Z,64.35
2022-08-01T10:49:03.280Z,64.64
2022-08-01T10:51:51.663Z,64.76
2022-08-01T10:54:16.982Z,65.15
2022-08-01T10:56:48.737Z,65.27
2022-08-01T10:59:50.260Z,65.66
2022-08-01T11:02:11.939Z,65.50
2022-08-01T11:04:41.605Z,65.94
2022-08-01T11:07:39.851Z,66.17
2022-08-01T11:10:20.138Z,65.98
2022-08-01T11:12:51.046Z,65.28
2022-08-01T11:15:29.736Z,64.17
2022-08-01T11:18:00.584Z,63.40
2022-08-01T11:20:39.555Z,63.35
2022-08-01T11:23:08.974Z,63.12
2022-08-01T11:26:03.897Z,61.91
2022-08-01T11:28:33.848Z,62.03
2022-08-01T11:31:11.294Z,61.87
2022-08-01T11:33:47.066Z,61.25
2022-08-01T11:36:14.508Z,60.89
2022-08-01T11:39:13.307Z,60.80
2022-08-01T11:41:42.073Z,60.05
2022-08-01T11:44:28.185Z,60.28
2022-08-01T11:47:09.146Z,59.85
2022-08-01T11:49:55.971Z,59.95
2022-08-01T11:52:31.437Z,59.28
2022-08-01T11:55:10.234Z,58.67
2022-08-01T11:57:41.252Z,58.17
2022-08-01T12:00:15.388Z,57.24
2022-08-01T12:02:45.381Z,56.96
2022-08-01T12:05:15.405Z,56.60
2022-08-01T12:07:44.164Z,57.17
2022-08-01T12:10:16.551Z,57.37
2022-08-01T12:12:45.067Z,57.43
2022-08-01T12:15:15.435Z,57.42
2022-08-01T12:17:57.516Z,56.96
2022-08-01T12:20:35.263Z,55.91
2022-08-01T12:23:09.336Z,56.34
2022-08-01T12:25:36.859Z,55.93
2022-08-01T12:28:06.105Z,56.23
2022-08-01T12:30:37.145Z,56.33
2022-08-01T12:33:05.928Z,56.67
2022-08-01T12:35:33.294Z,56.84
2022-08-01T12:38:04.603Z,56.49
2022-08-01T12:40:33.730Z,55.77
2022-08-01T12:43:05.222Z,55.70
2022-08-01T12:45:35.240Z,54.77
2022-08-01T12:48:02.431Z,54.08
2022-08-01T12:50:33.005Z,55.00
2022-08-01T12:53:00.769Z,55.16
2022-08-01T12:55:33.666Z,54.24
2022-08-01T12:58:16.026Z,54.05
2022-08-01T13:00:46.412Z,54.28
2022-08-01T13:03:18.065Z,54.09
2022-08-01T13:05:51.535Z,54.44
2022-08-01T13:08:24.469Z,54.54
2022-08-01T13:11:00.606Z,53.85
2022-08-01T13:13:39.733Z,53.99
2022-08-01T13:16:12.142Z,54.26
2022-08-01T13:18:41.579Z,54.21
2022-08-01T13:21:11.518Z,54.13
2022-08-01T13:24:01.747Z,53.99
2022-08-01T13:26:44.077Z,54.45
2022-08-01T13:29:12.919Z,53.54
2022-08-01T13:31:40.555Z,53.51
2022-08-01T13:34:07.794Z,53.85
2022-08-01T13:36:35.416Z,54.08
2022-08-01T13:39:21.119Z,54.25
2022-08-01T13:41:47.899Z,54.12
2022-08-01T13:44:15.629Z,54.23
2022-08-01T13:46:49.491Z,53.84
2022-08-01T13:49:18.976Z,52.68
2022-08-01T13:51:51.008Z,51.99
2022-08-01T13:54:17.966Z,52.01
2022-08-01T13:56:44.532Z,51.42
2022-08-01T13:59:11.204Z,51.50
2022-08-01T14:01:40.136Z,51.74
2022-08-01T14:04:06.787Z,51.41
2022-08-01T14:06:33.565Z,50.72
2022-08-01T14:09:01.342Z,50.92
2022-08-01T14:11:30.666Z,50.79
2022-08-01T14:14:04.574Z,50.53
2022-08-01T14:16:31.436Z,50.52
2022-08-01T14:19:00.155Z,50.47
2022-08-01T14:21:29.206Z,50.91
2022-08-01T14:23:55.718Z,51.06
2022-08-01T14:26:22.402Z,50.96
2022-08-01T14:28:49.027Z,50.51
2022-08-01T14:31:18.656Z,50.96
2022-08-01T14:33:45.182Z,50.81
2022-08-01T14:36:30.362Z,50.60
2022-08-01T14:39:00.427Z,50.80
2022-08-01T14:41:27.492Z,50.81
2022-08-01T14:43:54.575Z,50.67
2022-08-01T14:46:21.136Z,51.07
2022-08-01T14:48:50.266Z,50.67
2022-08-01T14:51:16.873Z,50.42
2022-08-01T14:53:47.011Z,50.08
2022-08-01T14:56:18.357Z,49.62
2022-08-01T14:58:45.111Z,49.71
2022-08-01T15:01:11.954Z,49.13
2022-08-01T15:03:38.717Z,48.90
2022-08-01T15:06:07.726Z,48.57
2022-08-01T15:08:34.339Z,48.18
2022-08-01T15:11:03.451Z,48.06
2022-08-01T15:13:30.111Z,48.20
2022-08-01T15:16:00.089Z,47.91
2022-08-01T15:18:29.478Z,47.70
2022-08-01T15:20:59.594Z,47.37
2022-08-01T15:23:28.721Z,46.29
2022-08-01T15:25:57.815Z,46.63
2022-08-01T15:28:24.409Z,46.32
2022-08-01T15:30:50.970Z,45.92
2022-08-01T15:33:18.269Z,45.87
2022-08-01T15:35:44.908Z,46.10
2022-08-01T15:38:11.954Z,45.62
2022-08-01T15:40:38.651Z,45.80
2022-08-01T15:43:07.499Z,45.72
2022-08-01T15:45:49.435Z,45.13
2022-08-01T15:48:18.363Z,44.58
2022-08-01T15:50:48.696Z,43.92
2022-08-01T15:53:17.363Z,44.23
2022-08-01T15:55:48.875Z,43.93
2022-08-01T15:58:19.475Z,43.88
2022-08-01T16:00:48.615Z,42.98
2022-08-01T16:03:15.148Z,42.73
2022-08-01T16:05:44.343Z,42.32
2022-08-01T16:08:14.263Z,42.29
2022-08-01T16:10:41.583Z,41.78
2022-08-01T16:13:08.649Z,41.85
2022-08-01T16:15:39.344Z,41.59
2022-08-01T16:18:08.048Z,41.60
2022-08-01T16:20:35.744Z,40.87
2022-08-01T16:23:02.541Z,41.31
2022-08-01T16:25:29.248Z,41.22
2022-08-01T16:27:55.898Z,41.06
2022-08-01T16:30:22.844Z,41.13
2022-08-01T16:32:53.413Z,41.10
2022-08-01T16:35:36.754Z,41.41
2022-08-01T16:38:08.083Z,40.87
2022-08-01T16:40:46.333Z,41.28
2022-08-01T16:43:17.404Z,41.77
2022-08-01T16:45:47.287Z,41.88
2022-08-01T16:48:20.997Z,41.90
2022-08-01T16:50:49.620Z,41.67
2022-08-01T16:53:20.305Z,41.93
2022-08-01T16:55:50.320Z,42.05
2022-08-01T16:58:27.582Z,42.15
2022-08-01T17:00:56.771Z,41.95
2022-08-01T17:03:46.560Z,41.64
2022-08-01T17:06:16.829Z,41.80
2022-08-01T17:08:46.909Z,41.68
2022-08-01T17:11:15.243Z,41.93
2022-08-01T17:13:42.638Z,42.08
2022-08-01T17:16:09.539Z,41.61
2022-08-01T17:18:36.112Z,41.21
2022-08-01T17:21:02.816Z,40.93
2022-08-01T17:23:31.641Z,41.10
2022-08-01T17:25:58.842Z,40.20
2022-08-01T17:28:28.376Z,39.21
2022-08-01T17:30:55.098Z,39.17
2022-08-01T17:33:21.751Z,38.41
2022-08-01T17:35:49.733Z,38.16
2022-08-01T17:38:17.067Z,38.91
2022-08-01T17:40:43.794Z,39.64
2022-08-01T17:43:10.381Z,39.78
2022-08-01T17:45:50.192Z,39.82
2022-08-01T17:48:18.609Z,40.02
2022-08-01T17:50:48.850Z,40.19
2022-08-01T17:53:21.086Z,40.25
2022-08-01T17:55:54.466Z,40.22
2022-08-01T17:58:33.064Z,40.00
2022-08-01T18:01:11.168Z,40.19
2022-08-01T18:03:41.492Z,40.51
2022-08-01T18:06:13.798Z,40.54
2022-08-01T18:08:41.981Z,40.28
2022-08-01T18:11:09.441Z,40.20
2022-08-01T18:13:36.328Z,40.57
2022-08-01T18:16:07.265Z,40.76
2022-08-01T18:18:36.825Z,40.91
2022-08-01T18:21:03.919Z,41.11
2022-08-01T18:23:33.679Z,41.10
2022-08-01T18:26:02.461Z,41.38
2022-08-01T18:28:35.087Z,41.40
2022-08-01T18:31:06.425Z,41.65
2022-08-01T18:33:34.513Z,41.88
2022-08-01T18:36:04.097Z,42.12
2022-08-01T18:38:32.462Z,42.58
2022-08-01T18:41:03.434Z,41.81
2022-08-01T18:43:30.032Z,41.02
2022-08-01T18:45:57.549Z,41.64
2022-08-01T18:48:24.534Z,42.22
2022-08-01T18:50:51.509Z,43.47
2022-08-01T18:53:18.861Z,43.84
2022-08-01T18:55:45.625Z,44.53
2022-08-01T18:58:12.328Z,44.75
2022-08-01T19:00:39.904Z,44.91
2022-08-01T19:03:07.818Z,45.01
2022-08-01T19:05:35.103Z,45.75
2022-08-01T19:08:05.592Z,45.84
2022-08-01T19:10:38.539Z,45.78
2022-08-01T19:13:05.241Z,46.54
2022-08-01T19:15:31.865Z,46.57
2022-08-01T19:17:58.414Z,46.70
2022-08-01T19:20:25.189Z,46.65
2022-08-01T19:22:51.738Z,46.80
2022-08-01T19:25:18.445Z,47.22
2022-08-01T19:27:48.526Z,47.59
2022-08-01T19:30:17.834Z,47.78
2022-08-01T19:32:46.277Z,47.87
2022-08-01T19:35:17.935Z,48.19
2022-08-01T19:37:47.173Z,47.89
2022-08-01T19:40:26.733Z,48.41
2022-08-01T19:42:57.033Z,48.20
2022-08-01T19:45:28.120Z,48.76
2022-08-01T19:47:57.194Z,48.82
2022-08-01T19:50:26.497Z,48.78
2022-08-01T19:52:57.801Z,49.19
2022-08-01T19:55:24.898Z,49.16
2022-08-01T19:58:17.186Z,49.33
2022-08-01T20:00:40.158Z,49.28
2022-08-01T20:03:07.982Z,49.48
2022-08-01T20:05:39.017Z,49.64
2022-08-01T20:08:09.258Z,50.16
2022-08-01T20:10:38.286Z,50.19
2022-08-01T20:13:05.417Z,50.30
2022-08-01T20:15:32.055Z,50.96
2022-08-01T20:18:00.885Z,50.86
2022-08-01T20:20:27.955Z,51.32
2022-08-01T20:22:56.800Z,51.10
2022-08-01T20:25:39.174Z,51.78
2022-08-01T20:28:11.432Z,52.07
2022-08-01T20:30:42.745Z,52.47
2022-08-01T20:33:11.273Z,52.73
2022-08-01T20:35:52.161Z,52.90
2022-08-01T20:38:28.989Z,52.49
2022-08-01T20:40:58.762Z,52.75
2022-08-01T20:43:27.513Z,52.67
2022-08-01T20:45:57.420Z,52.64
2022-08-01T20:48:28.232Z,52.87
2022-08-01T20:51:13.941Z,52.94
2022-08-01T20:53:46.518Z,53.04
2022-08-01T20:56:17.272Z,53.24
2022-08-01T20:58:48.273Z,53.29
2022-08-01T21:01:17.710Z,53.43
2022-08-01T21:04:26.894Z,53.33
2022-08-01T21:07:06.732Z,53.63
2022-08-01T21:09:39.500Z,54.00
2022-08-01T21:12:09.703Z,54.27
2022-08-01T21:15:08.346Z,54.05
2022-08-01T21:17:49.459Z,54.79
2022-08-01T21:20:22.063Z,55.06
2022-08-01T21:23:28.461Z,54.88
2022-08-01T21:25:58.047Z,55.86
2022-08-01T21:28:28.327Z,55.94
2022-08-01T21:30:59.418Z,56.08
2022-08-01T21:33:30.583Z,56.36
2022-08-01T21:36:02.736Z,56.58
2022-08-01T21:38:33.909Z,56.77
2022-08-01T21:41:05.722Z,56.81
2022-08-01T21:43:36.145Z,56.89
2022-08-01T21:46:03.206Z,56.86
2022-08-01T21:48:32.577Z,56.83
2022-08-01T21:51:03.971Z,57.11
2022-08-01T21:53:54.134Z,56.77
2022-08-01T21:56:24.831Z,57.28
2022-08-01T21:59:00.432Z,57.12
2022-08-01T22:01:52.105Z,56.75
2022-08-01T22:04:26.775Z,57.62
2022-08-01T22:06:54.448Z,57.63
2022-08-01T22:09:22.111Z,58.29
2022-08-01T22:12:00.952Z,57.82
2022-08-01T22:14:29.991Z,58.04
2022-08-01T22:17:00.007Z,58.12
2022-08-01T22:19:32.730Z,58.24
2022-08-01T22:22:32.305Z,58.42
2022-08-01T22:25:00.338Z,58.25
2022-08-01T22:28:08.078Z,58.21
2022-08-01T22:30:16.270Z,58.41
2022-08-01T22:32:44.032Z,58.65
2022-08-01T22:35:14.083Z,58.83
2022-08-01T22:37:56.382Z,59.45
2022-08-01T22:40:24.317Z,59.08
2022-08-01T22:42:59.649Z,59.29
2022-08-01T22:45:40.506Z,58.96
2022-08-01T22:48:34.890Z,58.74
2022-08-01T22:51:34.780Z,58.85
2022-08-01T22:54:12.261Z,59.02
2022-08-01T22:56:44.095Z,59.04
2022-08-01T22:59:20.771Z,59.23
2022-08-01T23:01:51.739Z,58.95
2022-08-01T23:04:33.218Z,59.04
2022-08-01T23:07:04.976Z,58.96
2022-08-01T23:09:53.209Z,58.85
2022-08-01T23:12:23.695Z,59.05
2022-08-01T23:14:53.544Z,59.11
2022-08-01T23:17:27.332Z,59.56
2022-08-01T23:20:06.218Z,59.33
2022-08-01T23:22:35.677Z,59.40
2022-08-01T23:25:06.493Z,59.27
2022-08-01T23:28:04.100Z,59.42
2022-08-01T23:30:28.486Z,59.51
2022-08-01T23:32:55.808Z,59.76
2022-08-01T23:35:25.006Z,59.73
2022-08-01T23:37:52.066Z,59.88
2022-08-01T23:40:19.370Z,59.44
2022-08-01T23:42:46.093Z,59.93
2022-08-01T23:45:14.971Z,59.96
2022-08-01T23:47:43.719Z,59.27
2022-08-01T23:50:11.455Z,59.72
2022-08-01T23:52:42.603Z,59.70
2022-08-01T23:55:15.755Z,59.07
2022-08-01T23:57:42.778Z,59.20
